Time;durP1;ratioP1;P1;durP2;ratioP2;P2;SDS_P1;SDS_P2;PMS_P1;PMS_P2;Temp;Humidity;BMP_temperature;BMP_pressure;BME280_temperature;BME280_humidity;BME280_pressure;Samples;Min_cycle;Max_cycle;Signal;HPM_P1;HPM_P2
2023/04/06 00:00:58;;;;;;;;;;;3.20;98.40;;;;;;2058333;28;19910;-74
2023/04/06 00:01:58;;;;;;;;;;;3.20;98.60;;;;;;2058166;28;19919;-74
2023/04/06 00:02:59;;;;;;;;;;;3.20;98.70;;;;;;2058017;28;19941;-74
2023/04/06 00:03:59;;;;;;;;;;;3.20;98.60;;;;;;2057149;28;19961;-72
2023/04/06 00:05:00;;;;;;;;;;;3.10;98.60;;;;;;2057517;28;20366;-73
2023/04/06 00:06:00;;;;;;;;;;;3.10;98.70;;;;;;2058877;28;19953;-74
2023/04/06 00:07:00;;;;;;;;;;;3.10;98.80;;;;;;2066364;28;20376;-74
2023/04/06 00:08:01;;;;;;;;;;;3.10;98.90;;;;;;2065074;28;19906;-73
2023/04/06 00:09:02;;;;;;;;;;;3.10;99.00;;;;;;2056964;28;20653;-74
2023/04/06 00:10:03;;;;;;;;;;;3.10;99.10;;;;;;2059382;28;19918;-73
2023/04/06 00:11:03;;;;;;;;;;;3.10;99.20;;;;;;2058647;28;19910;-73
2023/04/06 00:12:04;;;;;;;;;;;3.10;99.90;;;;;;2062183;28;19917;-74
2023/04/06 00:13:05;;;;;;;;;;;3.00;99.90;;;;;;2063495;28;19910;-74
2023/04/06 00:14:06;;;;;;;;;;;3.00;99.90;;;;;;2060133;28;19995;-74
2023/04/06 00:15:06;;;;;;;;;;;3.00;99.90;;;;;;2058099;28;19967;-74
2023/04/06 00:16:07;;;;;;;;;;;3.00;99.90;;;;;;2060142;28;19956;-74
2023/04/06 00:17:08;;;;;;;;;;;3.00;99.90;;;;;;2061658;28;19921;-74
2023/04/06 00:18:08;;;;;;;;;;;3.00;99.90;;;;;;2059948;28;19916;-74
2023/04/06 00:19:08;;;;;;;;;;;3.00;99.90;;;;;;2058344;28;19916;-73
2023/04/06 00:20:09;;;;;;;;;;;3.00;99.90;;;;;;2062856;28;20262;-73
2023/04/06 00:21:13;;;;;;;;;;;3.00;99.90;;;;;;2058086;28;19918;-74
2023/04/06 00:22:14;;;;;;;;;;;3.00;99.90;;;;;;2058000;28;19998;-74
2023/04/06 00:23:15;;;;;;;;;;;2.90;99.90;;;;;;2059214;28;19935;-74
2023/04/06 00:24:15;;;;;;;;;;;3.00;99.90;;;;;;2058696;28;19910;-74
2023/04/06 00:25:16;;;;;;;;;;;3.00;99.90;;;;;;2061173;28;20450;-74
2023/04/06 00:26:16;;;;;;;;;;;3.00;99.90;;;;;;2062529;28;20027;-74
2023/04/06 00:27:17;;;;;;;;;;;2.90;99.90;;;;;;2058190;28;19945;-74
2023/04/06 00:28:17;;;;;;;;;;;2.90;99.90;;;;;;2057866;28;20001;-74
2023/04/06 00:29:18;;;;;;;;;;;2.90;99.90;;;;;;2060161;28;19967;-74
2023/04/06 00:30:18;;;;;;;;;;;2.90;99.90;;;;;;2058565;28;20367;-74
2023/04/06 00:31:19;;;;;;;;;;;2.90;99.90;;;;;;2058274;28;19924;-74
2023/04/06 00:32:19;;;;;;;;;;;2.90;99.90;;;;;;2059778;28;19910;-73
2023/04/06 00:33:20;;;;;;;;;;;2.90;99.90;;;;;;2074403;28;20373;-74
2023/04/06 00:34:20;;;;;;;;;;;2.90;99.90;;;;;;2075287;28;19913;-74
2023/04/06 00:35:21;;;;;;;;;;;2.90;99.90;;;;;;2058913;28;19913;-74
2023/04/06 00:36:21;;;;;;;;;;;2.90;99.90;;;;;;2059563;28;19914;-74
2023/04/06 00:37:22;;;;;;;;;;;2.80;99.90;;;;;;2061144;28;19949;-74
2023/04/06 00:38:22;;;;;;;;;;;2.80;99.90;;;;;;2060453;28;19910;-73
2023/04/06 00:39:23;;;;;;;;;;;2.80;99.90;;;;;;2060428;28;19925;-74
2023/04/06 00:40:24;;;;;;;;;;;2.80;99.90;;;;;;2060485;28;19913;-74
2023/04/06 00:41:24;;;;;;;;;;;2.80;99.90;;;;;;2060072;28;19980;-74
2023/04/06 00:42:25;;;;;;;;;;;2.80;99.90;;;;;;2061749;28;20661;-74
2023/04/06 00:43:26;;;;;;;;;;;2.70;99.90;;;;;;2061696;28;19920;-74
2023/04/06 00:44:26;;;;;;;;;;;2.80;99.90;;;;;;2062011;28;20040;-74
2023/04/06 00:45:27;;;;;;;;;;;2.80;99.90;;;;;;2061579;28;19936;-74
2023/04/06 00:46:28;;;;;;;;;;;2.70;99.90;;;;;;2057369;28;19910;-74
2023/04/06 00:47:28;;;;;;;;;;;2.70;99.90;;;;;;2059461;28;20348;-74
2023/04/06 00:48:30;;;;;;;;;;;2.70;99.90;;;;;;2066025;28;19909;-74
2023/04/06 00:49:32;;;;;;;;;;;2.70;99.90;;;;;;2065965;28;20543;-73
2023/04/06 00:50:32;;;;;;;;;;;2.70;99.90;;;;;;2060409;28;19910;-73
2023/04/06 00:51:33;;;;;;;;;;;2.70;99.90;;;;;;2059777;28;19935;-73
2023/04/06 00:52:36;;;;;;;;;;;2.70;99.90;;;;;;2062538;28;19960;-74
2023/04/06 00:53:37;;;;;;;;;;;2.70;99.90;;;;;;2061152;28;19928;-74
2023/04/06 00:54:37;;;;;;;;;;;2.70;99.90;;;;;;2061727;28;19910;-74
2023/04/06 00:55:38;;;;;;;;;;;2.70;99.90;;;;;;2061564;28;19949;-73
2023/04/06 00:56:39;;;;;;;;;;;2.70;99.90;;;;;;2059363;28;20292;-74
2023/04/06 00:57:39;;;;;;;;;;;2.70;99.90;;;;;;2059543;28;19989;-74
2023/04/06 00:58:40;;;;;;;;;;;2.70;99.90;;;;;;2062670;28;19918;-74
2023/04/06 00:59:40;;;;;;;;;;;2.70;99.90;;;;;;2060729;28;19976;-74
2023/04/06 01:00:41;;;;;;;;;;;2.60;99.90;;;;;;2059978;28;19916;-74
2023/04/06 01:01:41;;;;;;;;;;;2.70;99.90;;;;;;2059959;28;20032;-74
2023/04/06 01:02:42;;;;;;;;;;;2.60;99.90;;;;;;2059970;28;19914;-73
2023/04/06 01:03:44;;;;;;;;;;;2.60;99.90;;;;;;2058695;28;19909;-74
2023/04/06 01:04:44;;;;;;;;;;;2.60;99.90;;;;;;2060216;28;20401;-74
2023/04/06 01:05:45;;;;;;;;;;;2.60;99.90;;;;;;2059765;28;19957;-74
2023/04/06 01:06:46;;;;;;;;;;;2.60;99.90;;;;;;2060449;28;19937;-74
2023/04/06 01:07:46;;;;;;;;;;;2.60;99.90;;;;;;2058887;28;20433;-74
2023/04/06 01:08:46;;;;;;;;;;;2.60;99.90;;;;;;2058862;28;19959;-74
2023/04/06 01:09:47;;;;;;;;;;;2.50;99.90;;;;;;2064627;28;20255;-74
2023/04/06 01:10:47;;;;;;;;;;;2.50;99.90;;;;;;2058361;28;19914;-74
2023/04/06 01:11:48;;;;;;;;;;;2.50;99.90;;;;;;2059638;28;20000;-74
2023/04/06 01:12:48;;;;;;;;;;;2.50;99.90;;;;;;2060483;28;19931;-74
2023/04/06 01:13:49;;;;;;;;;;;2.50;99.90;;;;;;2059139;28;20175;-74
2023/04/06 01:14:49;;;;;;;;;;;2.50;99.90;;;;;;2059298;28;19917;-74
2023/04/06 01:15:50;;;;;;;;;;;2.50;99.90;;;;;;2058591;28;19969;-73
2023/04/06 01:16:51;;;;;;;;;;;2.50;99.90;;;;;;2059707;28;19953;-74
2023/04/06 01:17:51;;;;;;;;;;;2.50;99.90;;;;;;2056712;28;20005;-74
2023/04/06 01:18:52;;;;;;;;;;;2.50;99.90;;;;;;2059862;28;19910;-73
2023/04/06 01:19:53;;;;;;;;;;;2.50;99.90;;;;;;2060583;28;19909;-73
2023/04/06 01:20:54;;;;;;;;;;;2.50;99.90;;;;;;2058683;28;20016;-73
2023/04/06 01:21:54;;;;;;;;;;;2.50;99.90;;;;;;2058984;28;19912;-74
2023/04/06 01:22:55;;;;;;;;;;;2.40;99.90;;;;;;2057936;28;20310;-74
2023/04/06 01:23:55;;;;;;;;;;;2.40;99.90;;;;;;2059026;28;19936;-74
2023/04/06 01:24:56;;;;;;;;;;;2.40;99.90;;;;;;2060018;28;19921;-74
2023/04/06 01:25:56;;;;;;;;;;;2.40;99.90;;;;;;2061195;28;19921;-74
2023/04/06 01:26:57;;;;;;;;;;;2.40;99.90;;;;;;2060495;28;20321;-74
2023/04/06 01:27:57;;;;;;;;;;;2.40;99.90;;;;;;2059424;28;19922;-73
2023/04/06 01:28:58;;;;;;;;;;;2.40;99.90;;;;;;2060696;28;19920;-74
2023/04/06 01:29:59;;;;;;;;;;;2.40;99.90;;;;;;2058965;28;19909;-74
2023/04/06 01:30:59;;;;;;;;;;;2.30;99.90;;;;;;2067624;28;19909;-74
2023/04/06 01:32:00;;;;;;;;;;;2.30;99.90;;;;;;2067013;28;19925;-74
2023/04/06 01:33:01;;;;;;;;;;;2.30;99.90;;;;;;2059958;28;20381;-74
2023/04/06 01:34:01;;;;;;;;;;;2.30;99.90;;;;;;2061113;28;19910;-74
2023/04/06 01:35:01;;;;;;;;;;;2.30;99.90;;;;;;2066583;28;20108;-74
2023/04/06 01:36:03;;;;;;;;;;;2.30;99.90;;;;;;2066579;28;19909;-73
2023/04/06 01:37:03;;;;;;;;;;;2.30;99.90;;;;;;2062441;28;20297;-74
2023/04/06 01:38:04;;;;;;;;;;;2.30;99.90;;;;;;2059297;28;19968;-74
2023/04/06 01:39:04;;;;;;;;;;;2.30;99.90;;;;;;2061730;28;20370;-74
2023/04/06 01:40:05;;;;;;;;;;;2.30;99.90;;;;;;2060534;28;19910;-74
2023/04/06 01:41:06;;;;;;;;;;;2.20;99.90;;;;;;2062969;28;19910;-74
2023/04/06 01:42:06;;;;;;;;;;;2.30;99.90;;;;;;2060452;28;19910;-74
2023/04/06 01:43:06;;;;;;;;;;;2.20;99.90;;;;;;2058761;28;19909;-74
2023/04/06 01:44:07;;;;;;;;;;;2.20;99.90;;;;;;2061053;28;19968;-74
2023/04/06 01:45:07;;;;;;;;;;;2.20;99.90;;;;;;2061030;28;19960;-74
2023/04/06 01:46:08;;;;;;;;;;;2.20;99.90;;;;;;2059547;28;19913;-74
2023/04/06 01:47:08;;;;;;;;;;;2.20;99.90;;;;;;2058400;28;19913;-74
2023/04/06 01:48:09;;;;;;;;;;;2.20;99.90;;;;;;2059775;28;19909;-74
2023/04/06 01:49:09;;;;;;;;;;;2.20;99.90;;;;;;2058286;28;19922;-74
2023/04/06 01:50:10;;;;;;;;;;;2.20;99.90;;;;;;2059599;28;19914;-74
2023/04/06 01:51:10;;;;;;;;;;;2.20;99.90;;;;;;2058670;28;20370;-74
2023/04/06 01:52:11;;;;;;;;;;;2.20;99.90;;;;;;2060831;28;19920;-74
2023/04/06 01:53:11;;;;;;;;;;;2.20;99.90;;;;;;2058720;28;20020;-74
2023/04/06 01:54:12;;;;;;;;;;;2.20;99.90;;;;;;2057953;28;19991;-74
2023/04/06 01:55:12;;;;;;;;;;;2.20;99.90;;;;;;2059726;28;19918;-74
2023/04/06 01:56:13;;;;;;;;;;;2.20;99.90;;;;;;2058823;28;20285;-74
2023/04/06 01:57:13;;;;;;;;;;;2.10;99.90;;;;;;2061637;28;19917;-74
2023/04/06 01:58:14;;;;;;;;;;;2.10;99.90;;;;;;2058026;28;20420;-74
2023/04/06 01:59:15;;;;;;;;;;;2.20;99.90;;;;;;2059722;28;19924;-74
2023/04/06 02:00:15;;;;;;;;;;;2.20;99.90;;;;;;2057223;28;19968;-74
2023/04/06 02:01:16;;;;;;;;;;;2.10;99.90;;;;;;2057325;28;19918;-74
2023/04/06 02:02:16;;;;;;;;;;;2.20;99.90;;;;;;2059565;28;19918;-74
2023/04/06 02:03:17;;;;;;;;;;;2.10;99.90;;;;;;2058549;28;19952;-74
2023/04/06 02:04:17;;;;;;;;;;;2.10;99.90;;;;;;2057051;28;19910;-74
2023/04/06 02:05:19;;;;;;;;;;;2.10;99.90;;;;;;2055761;28;19964;-73
2023/04/06 02:06:19;;;;;;;;;;;2.10;99.90;;;;;;2060814;28;20387;-74
2023/04/06 02:07:20;;;;;;;;;;;2.10;99.90;;;;;;2060128;28;20297;-74
2023/04/06 02:08:20;;;;;;;;;;;2.10;99.90;;;;;;2060880;28;19936;-74
2023/04/06 02:09:21;;;;;;;;;;;2.10;99.90;;;;;;2060916;28;19914;-74
2023/04/06 02:10:21;;;;;;;;;;;2.10;99.90;;;;;;2059408;28;19918;-74
2023/04/06 02:11:22;;;;;;;;;;;2.10;99.90;;;;;;2058181;28;19953;-74
2023/04/06 02:12:23;;;;;;;;;;;2.10;99.90;;;;;;2059506;28;20033;-74
2023/04/06 02:13:24;;;;;;;;;;;2.10;99.90;;;;;;2058631;28;20366;-74
2023/04/06 02:14:25;;;;;;;;;;;2.10;99.90;;;;;;2056563;28;20748;-74
2023/04/06 02:15:26;;;;;;;;;;;2.10;99.90;;;;;;2058290;28;20329;-74
2023/04/06 02:16:26;;;;;;;;;;;2.10;99.90;;;;;;2058948;28;20023;-74
2023/04/06 02:17:26;;;;;;;;;;;2.10;99.90;;;;;;2059813;28;19965;-74
2023/04/06 02:18:28;;;;;;;;;;;2.10;99.90;;;;;;2058869;28;19913;-74
2023/04/06 02:19:28;;;;;;;;;;;2.10;99.90;;;;;;2060265;28;20350;-74
2023/04/06 02:20:28;;;;;;;;;;;2.00;99.90;;;;;;2057636;28;20318;-74
2023/04/06 02:21:29;;;;;;;;;;;2.10;99.90;;;;;;2062472;28;19909;-74
2023/04/06 02:22:30;;;;;;;;;;;2.10;99.90;;;;;;2061891;28;20004;-74
2023/04/06 02:23:30;;;;;;;;;;;2.00;99.90;;;;;;2057880;28;19973;-74
2023/04/06 02:24:31;;;;;;;;;;;2.00;99.90;;;;;;2058120;28;19909;-74
2023/04/06 02:25:32;;;;;;;;;;;2.10;99.90;;;;;;2058557;28;19925;-74
2023/04/06 02:26:32;;;;;;;;;;;2.10;99.90;;;;;;2058085;28;19905;-74
2023/04/06 02:27:33;;;;;;;;;;;2.10;99.90;;;;;;2059991;28;20464;-74
2023/04/06 02:28:33;;;;;;;;;;;2.00;99.90;;;;;;2059064;28;19952;-74
2023/04/06 02:29:34;;;;;;;;;;;2.00;99.90;;;;;;2060582;28;19917;-74
2023/04/06 02:30:34;;;;;;;;;;;2.10;99.90;;;;;;2074077;28;19909;-74
2023/04/06 02:31:35;;;;;;;;;;;2.00;99.90;;;;;;2075183;28;19980;-74
2023/04/06 02:32:35;;;;;;;;;;;2.00;99.90;;;;;;2060246;28;19910;-73
2023/04/06 02:33:36;;;;;;;;;;;2.00;99.90;;;;;;2060623;28;19909;-73
2023/04/06 02:34:36;;;;;;;;;;;2.00;99.90;;;;;;2058818;28;20321;-73
2023/04/06 02:35:36;;;;;;;;;;;2.00;99.90;;;;;;2059468;28;19918;-73
2023/04/06 02:36:37;;;;;;;;;;;2.00;99.90;;;;;;2057974;28;20420;-73
2023/04/06 02:37:37;;;;;;;;;;;2.00;99.90;;;;;;2062635;28;19917;-74
2023/04/06 02:38:38;;;;;;;;;;;2.00;99.90;;;;;;2065837;28;19909;-74
2023/04/06 02:39:38;;;;;;;;;;;2.00;99.90;;;;;;2066729;28;19980;-74
2023/04/06 02:40:39;;;;;;;;;;;2.00;99.90;;;;;;2058317;28;19992;-74
2023/04/06 02:41:39;;;;;;;;;;;2.00;99.90;;;;;;2073444;28;19917;-74
2023/04/06 02:42:40;;;;;;;;;;;2.00;99.90;;;;;;2072355;28;19923;-74
2023/04/06 02:43:40;;;;;;;;;;;2.00;99.90;;;;;;2060815;28;20032;-74
2023/04/06 02:44:41;;;;;;;;;;;1.90;99.90;;;;;;2058218;28;19996;-74
2023/04/06 02:45:41;;;;;;;;;;;2.00;99.90;;;;;;2057928;28;20028;-74
2023/04/06 02:46:42;;;;;;;;;;;2.00;99.90;;;;;;2057782;28;20657;-74
2023/04/06 02:47:42;;;;;;;;;;;2.00;99.90;;;;;;2058807;28;19916;-74
2023/04/06 02:48:43;;;;;;;;;;;2.00;99.90;;;;;;2075056;28;19913;-74
2023/04/06 02:49:43;;;;;;;;;;;2.00;99.90;;;;;;2065265;28;19964;-74
2023/04/06 02:50:44;;;;;;;;;;;2.00;99.90;;;;;;2057553;28;19917;-74
2023/04/06 02:51:44;;;;;;;;;;;2.00;99.90;;;;;;2058537;28;19924;-74
2023/04/06 02:52:45;;;;;;;;;;;2.00;99.90;;;;;;2056916;28;19914;-74
2023/04/06 02:53:45;;;;;;;;;;;2.00;99.90;;;;;;2058531;28;20350;-74
2023/04/06 02:54:46;;;;;;;;;;;2.00;99.90;;;;;;2058741;28;20265;-74
2023/04/06 02:55:46;;;;;;;;;;;2.00;99.90;;;;;;2058445;28;19917;-74
2023/04/06 02:56:47;;;;;;;;;;;1.90;99.90;;;;;;2059057;28;19914;-74
2023/04/06 02:57:47;;;;;;;;;;;2.00;99.90;;;;;;2059188;28;20373;-74
2023/04/06 02:58:48;;;;;;;;;;;1.90;99.90;;;;;;2061281;28;19920;-74
2023/04/06 02:59:48;;;;;;;;;;;2.00;99.90;;;;;;2059721;28;20781;-74
2023/04/06 03:00:49;;;;;;;;;;;1.90;99.90;;;;;;2066279;28;19913;-74
2023/04/06 03:01:50;;;;;;;;;;;2.00;99.90;;;;;;2066973;28;19909;-74
2023/04/06 03:02:50;;;;;;;;;;;2.00;99.90;;;;;;2058419;28;19917;-73
2023/04/06 03:03:50;;;;;;;;;;;1.90;99.90;;;;;;2059819;28;19906;-74
2023/04/06 03:04:51;;;;;;;;;;;2.00;99.90;;;;;;2060089;28;19910;-74
2023/04/06 03:05:51;;;;;;;;;;;1.90;99.90;;;;;;2058619;28;20611;-74
2023/04/06 03:06:53;;;;;;;;;;;1.90;99.90;;;;;;2060612;28;19973;-74
2023/04/06 03:07:54;;;;;;;;;;;1.90;99.90;;;;;;2059055;28;19905;-73
2023/04/06 03:08:54;;;;;;;;;;;1.90;99.90;;;;;;2058694;28;19919;-74
2023/04/06 03:09:55;;;;;;;;;;;1.90;99.90;;;;;;2059352;28;19964;-74
2023/04/06 03:10:56;;;;;;;;;;;1.90;99.90;;;;;;2059152;28;19910;-74
2023/04/06 03:11:57;;;;;;;;;;;1.90;99.90;;;;;;2056867;28;21097;-74
2023/04/06 03:12:57;;;;;;;;;;;1.90;99.90;;;;;;2060118;28;19989;-74
2023/04/06 03:13:59;;;;;;;;;;;1.90;99.90;;;;;;2064515;28;19913;-74
2023/04/06 03:14:59;;;;;;;;;;;1.90;99.90;;;;;;2059413;28;19909;-74
2023/04/06 03:16:00;;;;;;;;;;;1.90;99.90;;;;;;2060507;28;19914;-74
2023/04/06 03:17:01;;;;;;;;;;;1.90;99.90;;;;;;2058264;28;20357;-74
2023/04/06 03:18:01;;;;;;;;;;;1.90;99.90;;;;;;2060304;28;19933;-74
2023/04/06 03:19:01;;;;;;;;;;;1.90;99.90;;;;;;2074124;28;19912;-73
2023/04/06 03:20:02;;;;;;;;;;;1.80;99.90;;;;;;2070474;28;20274;-74
2023/04/06 03:21:03;;;;;;;;;;;1.80;99.90;;;;;;2061191;28;19920;-74
2023/04/06 03:22:03;;;;;;;;;;;1.80;99.90;;;;;;2058217;28;19921;-74
2023/04/06 03:23:04;;;;;;;;;;;1.80;99.90;;;;;;2072870;28;19916;-74
2023/04/06 03:24:05;;;;;;;;;;;1.80;99.90;;;;;;2074435;28;19906;-74
2023/04/06 03:25:05;;;;;;;;;;;1.80;99.90;;;;;;2057496;28;19988;-74
2023/04/06 03:26:06;;;;;;;;;;;1.80;99.90;;;;;;2059294;28;19917;-73
2023/04/06 03:27:06;;;;;;;;;;;1.80;99.90;;;;;;2058125;28;19909;-73
2023/04/06 03:28:07;;;;;;;;;;;1.80;99.90;;;;;;2057173;28;20377;-73
2023/04/06 03:29:07;;;;;;;;;;;1.80;99.90;;;;;;2076004;28;20083;-73
2023/04/06 03:30:08;;;;;;;;;;;1.80;99.90;;;;;;2074364;28;19916;-74
2023/04/06 03:31:08;;;;;;;;;;;1.80;99.90;;;;;;2058908;28;19973;-74
2023/04/06 03:32:10;;;;;;;;;;;1.80;99.90;;;;;;2060046;28;19914;-74
2023/04/06 03:33:10;;;;;;;;;;;1.80;99.90;;;;;;2059288;28;20365;-74
2023/04/06 03:34:11;;;;;;;;;;;1.80;99.90;;;;;;2060677;28;20276;-74
2023/04/06 03:35:11;;;;;;;;;;;1.70;99.90;;;;;;2060252;28;20361;-74
2023/04/06 03:36:12;;;;;;;;;;;1.80;99.90;;;;;;2057739;28;19945;-74
2023/04/06 03:37:12;;;;;;;;;;;1.80;99.90;;;;;;2060709;28;20036;-74
2023/04/06 03:38:12;;;;;;;;;;;1.70;99.90;;;;;;2057256;28;19917;-74
2023/04/06 03:39:13;;;;;;;;;;;1.70;99.90;;;;;;2058124;28;19945;-73
2023/04/06 03:40:13;;;;;;;;;;;1.70;99.90;;;;;;2058081;28;19914;-74
2023/04/06 03:41:14;;;;;;;;;;;1.70;99.90;;;;;;2055191;28;20327;-73
2023/04/06 03:42:14;;;;;;;;;;;1.70;99.90;;;;;;2058061;28;19913;-73
2023/04/06 03:43:15;;;;;;;;;;;1.70;99.90;;;;;;2059706;28;19945;-73
2023/04/06 03:44:16;;;;;;;;;;;1.70;99.90;;;;;;2057557;28;19910;-73
2023/04/06 03:45:17;;;;;;;;;;;1.70;99.90;;;;;;2060039;28;19916;-74
2023/04/06 03:46:17;;;;;;;;;;;1.60;99.90;;;;;;2058100;28;19947;-74
2023/04/06 03:47:17;;;;;;;;;;;1.60;99.90;;;;;;2059070;28;20048;-74
2023/04/06 03:48:18;;;;;;;;;;;1.60;99.90;;;;;;2057454;28;19914;-74
2023/04/06 03:49:18;;;;;;;;;;;1.70;99.90;;;;;;2059491;28;19918;-73
2023/04/06 03:50:19;;;;;;;;;;;1.60;99.90;;;;;;2058600;28;19910;-73
2023/04/06 03:51:19;;;;;;;;;;;1.60;99.90;;;;;;2057939;28;20891;-73
2023/04/06 03:52:22;;;;;;;;;;;1.60;99.90;;;;;;2061988;28;20056;-73
2023/04/06 03:53:23;;;;;;;;;;;1.60;99.90;;;;;;2060358;28;19938;-73
2023/04/06 03:54:23;;;;;;;;;;;1.60;99.90;;;;;;2059274;28;19910;-73
2023/04/06 03:55:24;;;;;;;;;;;1.60;99.90;;;;;;2058244;28;19925;-74
2023/04/06 03:56:24;;;;;;;;;;;1.60;99.90;;;;;;2059503;28;19910;-74
2023/04/06 03:57:25;;;;;;;;;;;1.60;99.90;;;;;;2058551;28;19910;-74
2023/04/06 03:58:25;;;;;;;;;;;1.60;99.90;;;;;;2059065;28;19914;-73
2023/04/06 03:59:26;;;;;;;;;;;1.60;99.90;;;;;;2059042;28;20429;-74
2023/04/06 04:00:26;;;;;;;;;;;1.50;99.90;;;;;;2058268;28;19930;-74
2023/04/06 04:01:27;;;;;;;;;;;1.60;99.90;;;;;;2059361;28;20067;-74
2023/04/06 04:02:27;;;;;;;;;;;1.60;99.90;;;;;;2057726;28;19906;-74
2023/04/06 04:03:28;;;;;;;;;;;1.50;99.90;;;;;;2058729;28;19961;-74
2023/04/06 04:04:28;;;;;;;;;;;1.50;99.90;;;;;;2058895;28;20342;-73
2023/04/06 04:05:28;;;;;;;;;;;1.50;99.90;;;;;;2061376;28;19909;-74
2023/04/06 04:06:29;;;;;;;;;;;1.50;99.90;;;;;;2057885;28;19910;-73
2023/04/06 04:07:30;;;;;;;;;;;1.50;99.90;;;;;;2059343;28;20302;-73
2023/04/06 04:08:30;;;;;;;;;;;1.50;99.90;;;;;;2059774;28;20484;-73
2023/04/06 04:09:31;;;;;;;;;;;1.50;99.90;;;;;;2063450;28;19909;-74
2023/04/06 04:10:31;;;;;;;;;;;1.50;99.90;;;;;;2065427;28;19921;-74
2023/04/06 04:11:32;;;;;;;;;;;1.50;99.90;;;;;;2059622;28;19913;-74
2023/04/06 04:12:32;;;;;;;;;;;1.50;99.90;;;;;;2058730;28;19952;-74
2023/04/06 04:13:32;;;;;;;;;;;1.50;99.90;;;;;;2073253;28;21592;-74
2023/04/06 04:14:33;;;;;;;;;;;1.40;99.90;;;;;;2072714;28;19959;-74
2023/04/06 04:15:33;;;;;;;;;;;1.40;99.90;;;;;;2057461;28;20456;-74
2023/04/06 04:16:34;;;;;;;;;;;1.40;99.90;;;;;;2058913;28;19918;-74
2023/04/06 04:17:34;;;;;;;;;;;1.40;99.90;;;;;;2058409;28;20012;-74
2023/04/06 04:18:36;;;;;;;;;;;1.40;99.90;;;;;;2059235;28;20298;-74
2023/04/06 04:19:36;;;;;;;;;;;1.40;99.90;;;;;;2057002;28;19913;-74
2023/04/06 04:20:37;;;;;;;;;;;1.40;99.90;;;;;;2057123;28;19957;-73
2023/04/06 04:21:44;;;;;;;;;;;1.40;99.90;;;;;;2062117;28;20270;-74
2023/04/06 04:22:45;;;;;;;;;;;1.40;99.90;;;;;;2060153;28;19909;-74
2023/04/06 04:23:45;;;;;;;;;;;1.40;99.90;;;;;;2058031;28;19909;-73
2023/04/06 04:24:46;;;;;;;;;;;1.40;99.90;;;;;;2064313;28;19932;-74
2023/04/06 04:25:46;;;;;;;;;;;1.40;99.90;;;;;;2067681;28;19989;-74
2023/04/06 04:26:47;;;;;;;;;;;1.40;99.90;;;;;;2059397;28;20396;-74
2023/04/06 04:27:47;;;;;;;;;;;1.40;99.90;;;;;;2057430;28;20004;-74
2023/04/06 04:28:47;;;;;;;;;;;1.40;99.90;;;;;;2057219;28;20698;-74
2023/04/06 04:29:48;;;;;;;;;;;1.30;99.90;;;;;;2058570;28;19930;-74
2023/04/06 04:30:49;;;;;;;;;;;1.30;99.90;;;;;;2064410;28;19941;-74
2023/04/06 04:31:49;;;;;;;;;;;1.30;99.90;;;;;;2066795;28;19917;-74
2023/04/06 04:32:50;;;;;;;;;;;1.30;99.90;;;;;;2060721;28;19917;-74
2023/04/06 04:33:51;;;;;;;;;;;1.30;99.90;;;;;;2060128;28;19910;-74
2023/04/06 04:34:52;;;;;;;;;;;1.30;99.90;;;;;;2060874;28;19916;-74
2023/04/06 04:35:53;;;;;;;;;;;1.30;99.90;;;;;;2059481;28;19910;-74
2023/04/06 04:36:53;;;;;;;;;;;1.30;99.90;;;;;;2061975;28;20371;-74
2023/04/06 04:37:54;;;;;;;;;;;1.30;99.90;;;;;;2074864;28;19909;-74
2023/04/06 04:38:54;;;;;;;;;;;1.30;99.90;;;;;;2070858;28;20000;-73
2023/04/06 04:39:55;;;;;;;;;;;1.30;99.90;;;;;;2057698;28;19917;-73
2023/04/06 04:40:55;;;;;;;;;;;1.30;99.90;;;;;;2058381;28;19953;-73
2023/04/06 04:41:56;;;;;;;;;;;1.30;99.90;;;;;;2055141;28;20116;-74
2023/04/06 04:42:56;;;;;;;;;;;1.30;99.90;;;;;;2059038;28;20346;-74
2023/04/06 04:43:57;;;;;;;;;;;1.30;99.90;;;;;;2057412;28;19917;-74
2023/04/06 04:44:57;;;;;;;;;;;1.20;99.90;;;;;;2058329;28;19905;-74
2023/04/06 04:45:58;;;;;;;;;;;1.20;99.90;;;;;;2058119;28;19910;-74
2023/04/06 04:46:59;;;;;;;;;;;1.20;99.90;;;;;;2058246;28;20569;-74
2023/04/06 04:48:00;;;;;;;;;;;1.20;99.90;;;;;;2057499;28;19913;-74
2023/04/06 04:49:00;;;;;;;;;;;1.20;99.90;;;;;;2058730;28;19956;-74
2023/04/06 04:50:00;;;;;;;;;;;1.20;99.90;;;;;;2056742;28;19914;-74
2023/04/06 04:51:01;;;;;;;;;;;1.20;99.90;;;;;;2056030;28;19914;-74
2023/04/06 04:52:02;;;;;;;;;;;1.20;99.90;;;;;;2056631;28;20012;-74
2023/04/06 04:53:05;;;;;;;;;;;1.20;99.90;;;;;;2056685;28;19918;-74
2023/04/06 04:54:05;;;;;;;;;;;1.20;99.90;;;;;;2057940;28;20347;-74
2023/04/06 04:55:06;;;;;;;;;;;1.20;99.90;;;;;;2057740;28;20285;-74
2023/04/06 04:56:06;;;;;;;;;;;1.20;99.90;;;;;;2058669;28;19996;-73
2023/04/06 04:57:07;;;;;;;;;;;1.20;99.90;;;;;;2058017;28;19914;-74
2023/04/06 04:58:08;;;;;;;;;;;1.20;99.90;;;;;;2059430;28;19918;-74
2023/04/06 04:59:09;;;;;;;;;;;1.20;99.90;;;;;;2059396;28;19921;-74
2023/04/06 05:00:10;;;;;;;;;;;1.20;99.90;;;;;;2057997;28;20016;-74
2023/04/06 05:01:10;;;;;;;;;;;1.20;99.90;;;;;;2060055;28;19913;-74
2023/04/06 05:02:10;;;;;;;;;;;1.20;99.90;;;;;;2058970;28;20485;-74
2023/04/06 05:03:17;;;;;;;;;;;1.20;99.90;;;;;;2059256;28;19909;-74
2023/04/06 05:04:18;;;;;;;;;;;1.20;99.90;;;;;;2058062;28;19925;-74
2023/04/06 05:05:18;;;;;;;;;;;1.20;99.90;;;;;;2060871;28;19918;-74
2023/04/06 05:06:19;;;;;;;;;;;1.20;99.90;;;;;;2059916;28;19913;-74
2023/04/06 05:07:20;;;;;;;;;;;1.20;99.90;;;;;;2060723;28;20325;-74
2023/04/06 05:08:21;;;;;;;;;;;1.20;99.90;;;;;;2060751;28;19948;-73
2023/04/06 05:09:21;;;;;;;;;;;1.20;99.90;;;;;;2059142;28;19906;-74
2023/04/06 05:10:22;;;;;;;;;;;1.20;99.90;;;;;;2060545;28;19972;-74
2023/04/06 05:11:22;;;;;;;;;;;1.20;99.90;;;;;;2067567;28;19917;-74
2023/04/06 05:12:22;;;;;;;;;;;1.20;99.90;;;;;;2066533;28;19967;-74
2023/04/06 05:13:23;;;;;;;;;;;1.10;99.90;;;;;;2059411;28;19910;-74
2023/04/06 05:14:24;;;;;;;;;;;1.10;99.90;;;;;;2060180;28;20024;-74
2023/04/06 05:15:24;;;;;;;;;;;1.10;99.90;;;;;;2059428;28;19914;-74
2023/04/06 05:16:25;;;;;;;;;;;1.10;99.90;;;;;;2060412;28;19956;-74
2023/04/06 05:17:25;;;;;;;;;;;1.10;99.90;;;;;;2060136;28;19929;-74
2023/04/06 05:18:26;;;;;;;;;;;1.10;99.90;;;;;;2065449;28;19916;-74
2023/04/06 05:19:26;;;;;;;;;;;1.10;99.90;;;;;;2065748;28;20467;-74
2023/04/06 05:20:27;;;;;;;;;;;1.10;99.90;;;;;;2060430;28;19910;-74
2023/04/06 05:21:28;;;;;;;;;;;1.10;99.90;;;;;;2072799;28;20321;-74
2023/04/06 05:22:28;;;;;;;;;;;1.20;99.90;;;;;;2075676;28;20053;-74
2023/04/06 05:23:29;;;;;;;;;;;1.20;99.90;;;;;;2060397;28;20430;-74
2023/04/06 05:24:29;;;;;;;;;;;1.20;99.90;;;;;;2067234;28;19933;-74
2023/04/06 05:25:30;;;;;;;;;;;1.20;99.90;;;;;;2069197;28;19921;-74
2023/04/06 05:26:30;;;;;;;;;;;1.20;99.90;;;;;;2058182;28;19920;-74
2023/04/06 05:27:31;;;;;;;;;;;1.30;99.90;;;;;;2059619;28;19910;-74
2023/04/06 05:28:32;;;;;;;;;;;1.30;99.90;;;;;;2059933;28;19910;-74
2023/04/06 05:29:33;;;;;;;;;;;1.30;99.90;;;;;;2058754;28;19918;-74
2023/04/06 05:30:35;;;;;;;;;;;1.30;99.90;;;;;;2058302;28;19914;-74
2023/04/06 05:31:35;;;;;;;;;;;1.30;99.90;;;;;;2057655;28;20020;-74
2023/04/06 05:32:36;;;;;;;;;;;1.30;99.90;;;;;;2067908;28;19913;-74
2023/04/06 05:33:36;;;;;;;;;;;1.30;99.90;;;;;;2066331;28;19913;-74
2023/04/06 05:34:37;;;;;;;;;;;1.40;99.90;;;;;;2059751;28;19940;-74
2023/04/06 05:35:37;;;;;;;;;;;1.40;99.90;;;;;;2059272;28;19918;-74
2023/04/06 05:36:38;;;;;;;;;;;1.40;99.90;;;;;;2057494;28;19913;-74
2023/04/06 05:37:38;;;;;;;;;;;1.40;99.90;;;;;;2058667;28;19916;-74
2023/04/06 05:38:39;;;;;;;;;;;1.50;99.90;;;;;;2066091;28;19941;-74
2023/04/06 05:39:40;;;;;;;;;;;1.50;99.90;;;;;;2070072;28;19948;-74
2023/04/06 05:40:41;;;;;;;;;;;1.50;99.90;;;;;;2060734;28;19960;-74
2023/04/06 05:41:41;;;;;;;;;;;1.50;99.90;;;;;;2062247;28;19905;-74
2023/04/06 05:42:45;;;;;;;;;;;1.60;99.90;;;;;;2059594;28;19929;-74
2023/04/06 05:43:45;;;;;;;;;;;1.60;99.90;;;;;;2058469;28;19910;-73
2023/04/06 05:44:45;;;;;;;;;;;1.70;99.90;;;;;;2061431;28;20000;-74
2023/04/06 05:45:46;;;;;;;;;;;1.70;99.90;;;;;;2061658;28;19910;-72
2023/04/06 05:46:46;;;;;;;;;;;1.80;99.90;;;;;;2058497;28;20392;-73
2023/04/06 05:47:47;;;;;;;;;;;1.80;99.90;;;;;;2059667;28;20576;-73
2023/04/06 05:48:47;;;;;;;;;;;1.90;99.90;;;;;;2058863;28;20022;-74
2023/04/06 05:49:48;;;;;;;;;;;1.90;99.90;;;;;;2061483;28;19918;-73
2023/04/06 05:50:51;;;;;;;;;;;2.00;99.90;;;;;;2060980;28;19922;-73
2023/04/06 05:51:51;;;;;;;;;;;2.00;99.90;;;;;;2061049;28;19920;-73
2023/04/06 05:52:52;;;;;;;;;;;2.10;99.90;;;;;;2059708;28;19914;-73
2023/04/06 05:53:52;;;;;;;;;;;2.10;99.90;;;;;;2058450;28;19910;-73
2023/04/06 05:54:53;;;;;;;;;;;2.20;99.90;;;;;;2061829;28;20309;-73
2023/04/06 05:55:54;;;;;;;;;;;2.20;99.90;;;;;;2058866;28;20666;-73
2023/04/06 05:56:54;;;;;;;;;;;2.30;99.90;;;;;;2060393;28;20354;-73
2023/04/06 05:57:55;;;;;;;;;;;2.40;99.90;;;;;;2061197;28;19910;-73
2023/04/06 05:58:55;;;;;;;;;;;2.40;99.90;;;;;;2059058;28;19992;-73